Time;durP1;ratioP1;P1;durP2;ratioP2;P2;SDS_P1;SDS_P2;PMS_P1;PMS_P2;Temp;Humidity;BMP_temperature;BMP_pressure;BME280_temperature;BME280_humidity;BME280_pressure;Samples;Min_cycle;Max_cycle;Signal;HPM_P1;HPM_P2
2021/05/14 14:35:25;;;;;;;;;;;;;;;22.76;57.06;100824.03;5066553;27;11553;-70
2021/05/14 14:37:50;;;;;;;;;;;;;;;22.87;57.71;100821.84;5032728;28;60570;-70
2021/05/14 14:40:16;;;;;;;;;;;;;;;22.88;57.76;100820.75;5036345;28;10064;-69
2021/05/14 14:42:42;;;;;;;;;;;;;;;22.82;58.24;100822.78;5047995;28;1796;-69
2021/05/14 14:45:10;;;;;;;;;;;;;;;22.69;57.90;100818.13;5028630;28;1816;-69
2021/05/14 14:47:35;;;;;;;;;;;;;;;22.59;57.96;100813.66;5044868;28;1810;-69
2021/05/14 14:50:00;;;;;;;;;;;;;;;22.56;58.05;100802.47;5025533;28;1707;-69
2021/05/14 14:52:26;;;;;;;;;;;;;;;22.53;57.92;100804.69;5046894;28;1966;-69
2021/05/14 14:54:51;;;;;;;;;;;;;;;22.52;58.14;100805.84;5040470;28;1971;-69
2021/05/14 14:57:16;;;;;;;;;;;;;;;22.53;58.09;100812.13;5039270;28;1469;-69
2021/05/14 14:59:41;;;;;;;;;;;;;;;22.50;58.41;100808.06;5041333;28;1589;-69
2021/05/14 15:02:07;;;;;;;;;;;;;;;22.49;58.33;100805.63;5035251;28;1215;-69
2021/05/14 15:04:32;;;;;;;;;;;;;;;22.47;58.16;100814.16;5031857;28;1037;-69
2021/05/14 15:06:57;;;;;;;;;;;;;;;22.47;58.46;100863.56;5030269;28;1740;-69
2021/05/14 15:09:23;;;;;;;;;;;;;;;22.48;58.06;100909.13;5035725;28;1553;-69
2021/05/14 15:11:48;;;;;;;;;;;;;;;22.51;58.04;100938.69;5040244;28;791;-69
2021/05/14 15:14:13;;;;;;;;;;;;;;;22.51;58.33;100905.75;5037043;28;1999;-69
2021/05/14 15:16:43;;;;;;;;;;;;;;;22.52;58.56;100892.88;5026863;28;1632;-69
2021/05/14 15:19:09;;;;;;;;;;;;;;;22.49;58.45;100894.25;5044557;28;947;-69
2021/05/14 15:21:34;;;;;;;;;;;;;;;22.51;58.31;100891.22;5035483;28;1690;-68
2021/05/14 15:23:59;;;;;;;;;;;;;;;22.51;58.78;100875.56;5045682;28;1513;-69
2021/05/14 15:26:24;;;;;;;;;;;;;;;22.52;58.68;100866.22;5042437;28;1505;-69
2021/05/14 15:28:50;;;;;;;;;;;;;;;22.41;58.73;100863.97;5039939;28;1724;-69
2021/05/14 15:31:15;;;;;;;;;;;;;;;22.53;58.50;100878.00;5038092;28;1677;-68
2021/05/14 15:33:41;;;;;;;;;;;;;;;22.56;58.85;100887.56;5035643;28;2006;-69
2021/05/14 15:36:06;;;;;;;;;;;;;;;22.56;58.91;100882.06;5047950;28;904;-69
2021/05/14 15:38:32;;;;;;;;;;;;;;;22.56;58.93;100882.91;5032032;28;1451;-69
2021/05/14 15:40:57;;;;;;;;;;;;;;;22.54;58.82;100874.97;5039700;28;1503;-69
2021/05/14 15:43:23;;;;;;;;;;;;;;;22.55;59.14;100867.53;5034885;28;1517;-69
2021/05/14 15:45:48;;;;;;;;;;;;;;;22.57;58.77;100873.53;5040947;28;1537;-69
2021/05/14 15:48:17;;;;;;;;;;;;;;;22.61;58.69;100860.81;5009603;28;1409;-68
2021/05/14 15:50:42;;;;;;;;;;;;;;;22.64;58.86;100851.19;5027007;28;1689;-69
2021/05/14 15:53:08;;;;;;;;;;;;;;;22.60;58.51;100842.75;5009174;28;1973;-68
2021/05/14 15:55:33;;;;;;;;;;;;;;;22.61;58.77;100841.59;5019843;28;1171;-69
2021/05/14 15:57:58;;;;;;;;;;;;;;;22.65;58.49;100842.63;5019606;28;862;-69
2021/05/14 16:00:24;;;;;;;;;;;;;;;22.64;58.51;100843.75;5012757;28;837;-69
2021/05/14 16:02:53;;;;;;;;;;;;;;;22.61;59.13;100849.84;5006056;28;1257;-69
2021/05/14 16:05:18;;;;;;;;;;;;;;;22.58;58.53;100850.47;4987421;28;1412;-69
2021/05/14 16:07:44;;;;;;;;;;;;;;;22.57;58.93;100857.06;4999015;28;1028;-69
2021/05/14 16:10:09;;;;;;;;;;;;;;;22.57;58.81;100857.06;5001565;28;1443;-69
2021/05/14 16:12:35;;;;;;;;;;;;;;;22.57;58.93;100857.06;5032143;28;1121;-69
2021/05/14 16:15:00;;;;;;;;;;;;;;;22.57;58.47;100851.56;5017517;28;1963;-69
2021/05/14 16:17:27;;;;;;;;;;;;;;;22.54;58.87;100853.00;5025297;28;1564;-69
2021/05/14 16:19:53;;;;;;;;;;;;;;;22.56;58.67;100862.84;5017577;28;1557;-69
2021/05/14 16:22:21;;;;;;;;;;;;;;;22.56;58.97;100871.91;5034523;28;830;-69
2021/05/14 16:24:46;;;;;;;;;;;;;;;22.56;58.94;100862.84;5029083;28;1278;-69
2021/05/14 16:27:12;;;;;;;;;;;;;;;22.54;58.87;100871.41;5025987;28;1889;-69
2021/05/14 16:29:40;;;;;;;;;;;;;;;22.53;59.08;100869.78;5025719;28;1602;-69
2021/05/14 16:32:05;;;;;;;;;;;;;;;22.54;58.98;100869.47;5018806;28;1762;-80
2021/05/14 16:34:31;;;;;;;;;;;;;;;23.17;61.20;100875.34;5028844;28;1989;-75
2021/05/14 16:36:56;;;;;;;;;;;;;;;23.07;58.20;100870.09;5022224;28;18576;-73
2021/05/14 16:39:21;;;;;;;;;;;;;;;22.92;59.21;100874.75;5049991;28;1381;-89
2021/05/14 16:41:47;;;;;;;;;;;;;;;22.90;59.76;100871.50;5034702;28;1903;-70
2021/05/14 16:44:12;;;;;;;;;;;;;;;23.00;60.58;100877.88;5041435;28;1167;-72
2021/05/14 16:46:37;;;;;;;;;;;;;;;22.98;59.65;100896.59;5039637;28;2045;-72
2021/05/14 16:49:03;;;;;;;;;;;;;;;22.89;59.40;100894.59;5039665;28;1758;-71
2021/05/14 16:51:28;;;;;;;;;;;;;;;22.85;59.15;100888.06;5045173;28;999;-71
2021/05/14 16:53:53;;;;;;;;;;;;;;;22.86;59.11;100883.41;5034500;28;1914;-71
2021/05/14 16:56:18;;;;;;;;;;;;;;;22.92;59.90;100885.75;5032418;28;1753;-73
2021/05/14 16:58:44;;;;;;;;;;;;;;;23.03;59.97;100875.38;5040594;28;2069;-78
2021/05/14 17:01:09;;;;;;;;;;;;;;;23.02;59.66;100870.19;5033303;28;1374;-79
2021/05/14 17:03:34;;;;;;;;;;;;;;;23.00;60.01;100875.97;5038662;28;1276;-79
2021/05/14 17:06:22;;;;;;;;;;;;;;;22.98;60.38;100877.38;5044791;28;1385;-79
2021/05/14 17:08:47;;;;;;;;;;;;;;;22.97;60.01;100862.84;5004904;28;1133;-79
2021/05/14 17:11:12;;;;;;;;;;;;;;;23.00;60.27;100866.91;5024652;28;1581;-79
2021/05/14 17:13:38;;;;;;;;;;;;;;;22.99;60.24;100862.53;5046885;28;1894;-79
2021/05/14 17:16:03;;;;;;;;;;;;;;;23.00;60.12;100872.38;5051762;28;1195;-80
2021/05/14 17:18:28;;;;;;;;;;;;;;;23.05;60.23;100873.13;5051455;28;800;-80
2021/05/14 17:20:54;;;;;;;;;;;;;;;23.04;60.09;100879.75;5049984;28;1452;-80
2021/05/14 17:23:19;;;;;;;;;;;;;;;23.04;60.26;100889.91;5035664;28;1536;-80
2021/05/14 17:25:44;;;;;;;;;;;;;;;23.06;60.20;100898.66;5020447;28;1491;-80
2021/05/14 17:28:10;;;;;;;;;;;;;;;23.04;60.10;100899.00;5037002;28;1320;-80
2021/05/14 17:30:35;;;;;;;;;;;;;;;23.06;60.52;100899.50;5026215;28;2988;-80
2021/05/14 17:33:00;;;;;;;;;;;;;;;23.10;60.44;100900.50;5035686;28;2563;-80
2021/05/14 17:35:26;;;;;;;;;;;;;;;23.12;60.45;100906.50;5040945;28;1973;-80
2021/05/14 17:37:51;;;;;;;;;;;;;;;23.13;60.15;100901.81;5024370;28;2738;-80
2021/05/14 17:40:16;;;;;;;;;;;;;;;23.14;60.63;100900.72;5039892;28;1456;-79
2021/05/14 17:42:41;;;;;;;;;;;;;;;23.15;60.38;100909.75;5035870;28;1497;-80
2021/05/14 17:45:08;;;;;;;;;;;;;;;23.15;60.69;100898.78;5040203;28;1509;-79
2021/05/14 17:47:34;;;;;;;;;;;;;;;23.13;60.73;100908.13;5055460;28;1264;-79
2021/05/14 17:49:59;;;;;;;;;;;;;;;23.15;60.94;100909.75;5042533;28;1167;-80
2021/05/14 17:52:25;;;;;;;;;;;;;;;23.14;60.82;100919.94;5040766;28;1504;-80
2021/05/14 17:54:50;;;;;;;;;;;;;;;23.11;60.97;100926.84;5035124;28;1949;-79
2021/05/14 17:57:16;;;;;;;;;;;;;;;23.06;61.02;100935.22;5035199;28;1437;-79
2021/05/14 17:59:41;;;;;;;;;;;;;;;23.10;61.12;100941.72;5039882;28;1512;-79
2021/05/14 18:02:07;;;;;;;;;;;;;;;23.12;60.72;100941.44;5043311;28;2572;-79
2021/05/14 18:04:32;;;;;;;;;;;;;;;23.14;60.78;100950.19;5038048;28;1516;-79
2021/05/14 18:06:57;;;;;;;;;;;;;;;23.16;61.51;100949.84;5033174;28;1476;-79
2021/05/14 18:09:23;;;;;;;;;;;;;;;23.16;62.02;100958.94;5036728;28;1524;-80
2021/05/14 18:11:49;;;;;;;;;;;;;;;23.17;62.60;100952.28;5034355;28;1512;-80
2021/05/14 18:14:14;;;;;;;;;;;;;;;23.16;63.09;100950.69;5037048;28;1953;-80
2021/05/14 18:16:39;;;;;;;;;;;;;;;23.16;63.14;100947.94;5039799;28;1013;-80
2021/05/14 18:19:33;;;;;;;;;;;;;;;23.15;63.15;100951.78;5023956;28;1647;-80
2021/05/14 18:21:50;;;;;;;;;;;;;;;23.15;62.07;100960.03;5033408;28;1451;-80
2021/05/14 18:24:15;;;;;;;;;;;;;;;23.15;63.06;100959.22;5032587;28;1308;-80
2021/05/14 18:26:40;;;;;;;;;;;;;;;23.15;62.78;100964.72;5013417;28;1406;-80
2021/05/14 18:29:06;;;;;;;;;;;;;;;23.10;62.28;100969.19;5029664;28;1405;-80
2021/05/14 18:31:33;;;;;;;;;;;;;;;23.09;61.93;100964.81;5030344;28;1541;-78
2021/05/14 18:33:58;;;;;;;;;;;;;;;23.10;62.15;100968.38;5029582;28;1894;-79
2021/05/14 18:36:23;;;;;;;;;;;;;;;23.12;61.41;100977.16;5037103;28;1302;-79
2021/05/14 18:38:49;;;;;;;;;;;;;;;23.15;61.18;100972.97;5042603;28;974;-79
2021/05/14 18:41:14;;;;;;;;;;;;;;;23.14;60.19;100988.66;5040190;28;1608;-79
2021/05/14 18:43:39;;;;;;;;;;;;;;;23.14;59.95;100991.38;5042652;28;822;-79
2021/05/14 18:46:05;;;;;;;;;;;;;;;23.17;59.86;101003.69;5030000;28;837;-79
2021/05/14 18:48:30;;;;;;;;;;;;;;;23.19;60.18;101005.00;5028145;28;794;-79
2021/05/14 18:50:56;;;;;;;;;;;;;;;23.21;60.08;101012.97;5028190;28;945;-79
2021/05/14 18:53:21;;;;;;;;;;;;;;;23.22;60.41;101009.91;5043782;28;1956;-79
2021/05/14 18:55:46;;;;;;;;;;;;;;;23.19;60.05;100999.50;5031424;28;1015;-78
2021/05/14 18:58:12;;;;;;;;;;;;;;;23.19;60.06;100999.50;5046765;28;1533;-79
2021/05/14 19:00:37;;;;;;;;;;;;;;;23.19;60.10;100999.50;5047193;28;869;-79
2021/05/14 19:03:03;;;;;;;;;;;;;;;23.24;60.56;101001.34;5035174;28;1372;-78
2021/05/14 19:05:28;;;;;;;;;;;;;;;23.26;61.57;101005.44;5027467;28;866;-78
2021/05/14 19:07:54;;;;;;;;;;;;;;;23.27;61.92;101000.75;5026969;28;806;-79
2021/05/14 19:10:19;;;;;;;;;;;;;;;23.25;61.69;101006.53;5026422;28;1011;-78
2021/05/14 19:12:45;;;;;;;;;;;;;;;23.21;60.89;100986.28;5028248;28;881;-79
2021/05/14 19:15:11;;;;;;;;;;;;;;;23.21;60.97;100997.28;5033847;28;1930;-78
2021/05/14 19:17:37;;;;;;;;;;;;;;;23.21;60.95;101001.97;5036953;28;834;-73
